KSUN/SUN METAR and TAF weather

Enter ICAO airport designator
Station Type Date Time Source
KSUN METAR 2018/12/15 19:55 UTC NOAA

KSUN 151955Z 00000KT 10SM SCT045 BKN060 BKN120 00/M06 A3018


Station Type Date Time Source
KSUN Decoded METAR 2018/12/15 19:55 UTC NOAA

Hailey, Friedman Memorial Airport, ID, United States (KSUN) 43-30N 114-18W
Dec 15, 2018 - 02:55 PM EST / 2018.12.15 1955 UTC
Wind: Calm:0
Visibility: 10 mile(s):0
Sky conditions: mostly cloudy
Temperature: 32 F (0 C)
Dew Point: 21 F (-6 C)
Relative Humidity: 63%
Pressure (altimeter): 30.18 in. Hg (1022 hPa)
ob: KSUN 151955Z 00000KT 10SM SCT045 BKN060 BKN120 00/M06 A3018
cycle: 20

Station Type Date Time Source
KSUN TAF 2018/12/15 18:30 UTC NOAA

TAF KSUN 151727Z 1518/1624 31006KT P6SM BKN100
FM152000 15005KT P6SM SCT040 BKN100
FM160300 31009KT P6SM FEW050 FEW100


Example: see airport list